createdAt,value
2019-04-30T00:00:22.065Z,9.97
2019-04-30T00:05:25.144Z,8.73
2019-04-30T00:10:35.411Z,8.60
2019-04-30T00:15:30.727Z,8.53
2019-04-30T00:20:37.049Z,9.33
2019-04-30T00:25:35.711Z,8.03
2019-04-30T00:30:39.258Z,8.17
2019-04-30T00:35:40.759Z,8.27
2019-04-30T00:40:42.290Z,8.40
2019-04-30T00:45:47.345Z,8.73
2019-04-30T00:50:47.447Z,8.40
2019-04-30T00:55:49.277Z,8.33
2019-04-30T01:00:50.858Z,8.43
2019-04-30T01:05:52.429Z,8.77
2019-04-30T01:10:55.631Z,8.47
2019-04-30T01:15:58.754Z,9.40
2019-04-30T01:21:02.931Z,8.87
2019-04-30T01:26:04.056Z,9.37
2019-04-30T01:31:06.063Z,9.70
2019-04-30T01:36:09.526Z,8.93
2019-04-30T01:41:11.063Z,8.30
2019-04-30T01:46:13.963Z,7.97
2019-04-30T01:51:20.335Z,8.00
2019-04-30T01:56:19.331Z,7.40
2019-04-30T02:01:20.896Z,7.33
2019-04-30T02:06:22.475Z,7.83
2019-04-30T02:11:24.379Z,7.10
2019-04-30T02:16:25.981Z,7.23
2019-04-30T02:21:27.561Z,7.73
2019-04-30T02:26:29.535Z,8.17
2019-04-30T02:31:31.129Z,9.57
2019-04-30T02:36:32.809Z,8.57
2019-04-30T02:41:35.114Z,9.63
2019-04-30T02:46:36.397Z,8.80
2019-04-30T02:51:39.994Z,9.93
2019-04-30T02:56:40.996Z,8.73
2019-04-30T03:01:42.320Z,9.80
2019-04-30T03:06:44.110Z,9.73
2019-04-30T03:11:45.464Z,11.20
2019-04-30T03:16:52.633Z,10.13
2019-04-30T03:21:50.501Z,11.53
2019-04-30T03:26:51.846Z,15.13
2019-04-30T03:31:53.231Z,17.33
2019-04-30T03:36:54.693Z,17.43
2019-04-30T03:41:56.045Z,16.10
2019-04-30T03:46:59.335Z,16.50
2019-04-30T03:52:00.951Z,17.67
2019-04-30T03:57:02.238Z,17.27
2019-04-30T04:02:03.715Z,18.03
2019-04-30T04:07:04.951Z,19.37
2019-04-30T04:12:06.465Z,19.83
2019-04-30T04:17:09.851Z,20.87
2019-04-30T04:22:12.266Z,20.43
2019-04-30T04:27:13.957Z,22.30
2019-04-30T04:32:15.225Z,26.17
2019-04-30T04:37:16.461Z,23.80
2019-04-30T04:42:19.388Z,24.33
2019-04-30T04:47:21.276Z,24.57
2019-04-30T04:52:23.019Z,25.53
2019-04-30T04:57:24.266Z,26.63
2019-04-30T05:02:25.637Z,26.50
2019-04-30T05:07:28.698Z,26.47
2019-04-30T05:12:30.570Z,24.43
2019-04-30T05:17:32.297Z,23.67
2019-04-30T05:22:33.767Z,22.60
2019-04-30T05:27:35.184Z,22.30
2019-04-30T05:32:36.417Z,21.40
2019-04-30T05:37:38.454Z,20.67
2019-04-30T05:42:39.999Z,21.00
2019-04-30T05:47:41.466Z,19.77
2019-04-30T05:52:42.844Z,19.07
2019-04-30T05:57:53.870Z,19.87
2019-04-30T06:02:49.526Z,18.70
2019-04-30T06:07:52.044Z,19.07
2019-04-30T06:12:53.972Z,19.10
2019-04-30T06:18:00.288Z,18.97
2019-04-30T06:22:59.652Z,18.57
2019-04-30T06:28:01.143Z,19.10
2019-04-30T06:33:02.950Z,19.53
2019-04-30T06:38:04.297Z,18.83
2019-04-30T06:43:05.862Z,19.83
2019-04-30T06:48:08.756Z,19.80
2019-04-30T06:53:10.244Z,21.50
2019-04-30T06:58:15.274Z,20.13
2019-04-30T07:03:15.183Z,21.07
2019-04-30T07:08:16.441Z,19.80
2019-04-30T07:13:18.788Z,19.97
2019-04-30T07:18:20.719Z,20.60
2019-04-30T07:23:22.191Z,21.40
2019-04-30T07:28:42.704Z,21.80
2019-04-30T07:33:29.427Z,22.43
2019-04-30T07:38:35.788Z,21.17
2019-04-30T07:43:34.126Z,22.77
2019-04-30T07:48:35.414Z,21.93
2019-04-30T07:53:36.887Z,21.90
2019-04-30T07:58:39.113Z,24.50
2019-04-30T08:03:40.940Z,23.90
2019-04-30T08:08:42.761Z,24.23
2019-04-30T08:13:44.755Z,25.43
2019-04-30T08:18:46.429Z,24.70
2019-04-30T08:23:48.975Z,26.67
2019-04-30T08:28:50.696Z,24.57
2019-04-30T08:33:52.155Z,26.67
2019-04-30T08:38:53.573Z,25.67
2019-04-30T08:43:54.836Z,26.03
2019-04-30T08:48:56.242Z,26.63
2019-04-30T08:53:58.707Z,26.07
2019-04-30T08:59:00.333Z,27.40
2019-04-30T09:04:02.307Z,26.40
2019-04-30T09:09:05.594Z,25.80
2019-04-30T09:14:08.565Z,25.63
2019-04-30T09:19:10.418Z,25.10
2019-04-30T09:24:11.659Z,26.67
2019-04-30T09:29:12.960Z,25.50
2019-04-30T09:34:18.028Z,26.23
2019-04-30T09:39:19.889Z,25.83
2019-04-30T09:44:21.858Z,24.63
2019-04-30T09:49:23.533Z,23.20
2019-04-30T09:54:25.246Z,21.73
2019-04-30T09:59:28.965Z,22.00
2019-04-30T10:04:31.233Z,21.57
2019-04-30T10:09:33.195Z,22.73
2019-04-30T10:14:34.439Z,21.30
2019-04-30T10:19:35.862Z,20.37
2019-04-30T10:24:39.206Z,20.17
2019-04-30T10:29:41.231Z,20.77
2019-04-30T10:34:42.636Z,20.57
2019-04-30T10:39:44.534Z,20.53
2019-04-30T10:44:45.763Z,22.27
2019-04-30T10:49:48.675Z,22.53
2019-04-30T10:54:50.110Z,21.70
2019-04-30T10:59:51.856Z,22.03
2019-04-30T11:04:53.372Z,21.63
2019-04-30T11:09:54.673Z,21.77
2019-04-30T11:14:55.897Z,23.93
2019-04-30T11:19:59.195Z,20.33
2019-04-30T11:25:02.760Z,21.37
2019-04-30T11:30:04.759Z,21.70
2019-04-30T11:35:07.462Z,21.80
2019-04-30T11:40:10.183Z,20.43
2019-04-30T11:45:19.452Z,20.15
2019-04-30T11:50:20.866Z,20.00
2019-04-30T11:55:22.129Z,20.25
2019-04-30T12:00:23.533Z,21.05
2019-04-30T12:05:25.008Z,21.20
2019-04-30T12:10:26.504Z,20.02
2019-04-30T12:15:29.112Z,19.30
2019-04-30T12:20:33.590Z,20.77
2019-04-30T12:25:34.711Z,19.65
2019-04-30T12:30:36.045Z,20.12
2019-04-30T12:35:37.312Z,20.23
2019-04-30T12:40:39.006Z,19.82
2019-04-30T12:45:40.293Z,21.10
2019-04-30T12:50:41.903Z,20.92
2019-04-30T12:55:43.385Z,20.70
2019-04-30T13:00:44.760Z,20.32
2019-04-30T13:05:46.477Z,19.92
2019-04-30T13:10:48.267Z,20.85
2019-04-30T13:15:49.938Z,21.50
2019-04-30T13:20:52.286Z,20.20
2019-04-30T13:25:53.861Z,21.87
2019-04-30T13:30:55.654Z,20.57
2019-04-30T13:35:58.429Z,21.90
2019-04-30T13:41:00.530Z,21.48
2019-04-30T13:46:02.001Z,21.10
2019-04-30T13:51:03.242Z,20.83
2019-04-30T13:56:04.639Z,21.83
2019-04-30T14:01:06.091Z,22.23
2019-04-30T14:06:09.118Z,22.37
2019-04-30T14:11:10.464Z,23.07
2019-04-30T14:16:11.893Z,21.62
2019-04-30T14:21:13.381Z,21.65
2019-04-30T14:26:15.009Z,23.23
2019-04-30T14:31:16.285Z,23.63
2019-04-30T14:36:19.351Z,22.57
2019-04-30T14:41:21.351Z,22.57
2019-04-30T14:46:23.489Z,21.57
2019-04-30T14:51:25.219Z,22.83
2019-04-30T14:56:26.450Z,21.63
2019-04-30T15:01:29.297Z,22.70
2019-04-30T15:06:31.241Z,23.50
2019-04-30T15:11:32.714Z,21.80
2019-04-30T15:16:34.235Z,20.73
2019-04-30T15:21:36.109Z,21.63
2019-04-30T15:26:39.335Z,21.00
2019-04-30T15:31:42.625Z,21.37
2019-04-30T15:36:43.977Z,21.10
2019-04-30T15:41:45.781Z,21.20
2019-04-30T15:46:47.474Z,20.77
2019-04-30T15:51:48.713Z,21.13
2019-04-30T15:56:50.140Z,20.60
2019-04-30T16:01:51.722Z,21.47
2019-04-30T16:06:53.195Z,20.57
2019-04-30T16:11:54.557Z,20.97
2019-04-30T16:16:56.360Z,20.13
2019-04-30T16:21:57.596Z,20.33
2019-04-30T16:26:59.496Z,20.13
2019-04-30T16:32:00.966Z,20.27
2019-04-30T16:37:02.321Z,21.60
2019-04-30T16:42:03.710Z,22.93
2019-04-30T16:47:13.728Z,21.17
2019-04-30T16:52:09.188Z,21.70
2019-04-30T16:57:10.714Z,22.37
2019-04-30T17:02:12.231Z,21.03
2019-04-30T17:07:13.645Z,21.30
2019-04-30T17:12:14.992Z,21.90
2019-04-30T17:17:16.695Z,20.80
2019-04-30T17:22:18.084Z,20.47
2019-04-30T17:27:22.121Z,20.70
2019-04-30T17:32:23.316Z,21.27
2019-04-30T17:37:24.564Z,20.57
2019-04-30T17:47:34.421Z,20.90
2019-04-30T17:52:37.230Z,20.20
2019-04-30T17:57:40.312Z,21.90
2019-04-30T18:02:41.824Z,23.20
2019-04-30T18:07:43.297Z,22.87
2019-04-30T18:12:44.708Z,21.30
2019-04-30T18:17:46.116Z,22.83
2019-04-30T18:22:48.896Z,22.07
2019-04-30T18:27:50.401Z,23.47
2019-04-30T18:32:52.528Z,23.43
2019-04-30T18:37:54.026Z,22.20
2019-04-30T18:42:55.849Z,22.10
2019-04-30T18:47:59.451Z,22.73
2019-04-30T18:53:01.044Z,22.80
2019-04-30T18:58:02.887Z,22.90
2019-04-30T19:03:04.186Z,22.77
2019-04-30T19:08:05.566Z,23.50
2019-04-30T19:13:08.805Z,24.17
2019-04-30T19:18:10.220Z,26.30
2019-04-30T19:23:12.179Z,23.37
2019-04-30T19:28:14.580Z,22.87
2019-04-30T19:33:16.297Z,23.83
2019-04-30T19:38:17.774Z,23.50
2019-04-30T19:43:19.379Z,24.67
2019-04-30T19:48:21.047Z,24.07
2019-04-30T19:53:22.432Z,23.57
2019-04-30T19:58:29.399Z,22.53
2019-04-30T20:03:29.184Z,21.77
2019-04-30T20:08:31.366Z,22.13
2019-04-30T20:13:37.074Z,20.40
2019-04-30T20:18:36.021Z,21.13
2019-04-30T20:23:37.378Z,21.47
2019-04-30T20:28:42.270Z,20.37
2019-04-30T20:33:42.045Z,20.47
2019-04-30T20:38:43.794Z,19.47
2019-04-30T20:43:45.039Z,19.57
2019-04-30T20:48:46.519Z,18.27
2019-04-30T20:53:49.160Z,19.87
2019-04-30T20:58:57.813Z,20.00
2019-04-30T21:03:53.913Z,20.10
2019-04-30T21:08:55.461Z,21.87
2019-04-30T21:13:56.709Z,21.07
2019-04-30T21:18:58.312Z,21.57
2019-04-30T21:23:59.601Z,21.33
2019-04-30T21:29:11.086Z,20.73
2019-04-30T21:34:04.586Z,19.47
2019-04-30T21:39:06.052Z,18.83
2019-04-30T21:44:07.528Z,17.63
2019-04-30T21:49:09.011Z,16.43
2019-04-30T21:54:10.380Z,16.93
2019-04-30T21:59:23.765Z,16.47
2019-04-30T22:04:14.931Z,16.77
2019-04-30T22:09:16.186Z,16.73
2019-04-30T22:14:17.912Z,16.83
2019-04-30T22:19:19.181Z,16.00
2019-04-30T22:24:20.887Z,16.13
2019-04-30T22:29:22.253Z,16.73
2019-04-30T22:34:23.825Z,16.03
2019-04-30T22:39:25.076Z,17.07
2019-04-30T22:44:26.652Z,15.87
2019-04-30T22:49:28.240Z,15.77
2019-04-30T22:54:29.786Z,16.23
2019-04-30T22:59:31.244Z,17.20
2019-04-30T23:04:32.841Z,16.53
2019-04-30T23:09:34.092Z,17.17
2019-04-30T23:14:35.358Z,17.43
2019-04-30T23:19:36.715Z,15.83
2019-04-30T23:24:37.980Z,15.90
2019-04-30T23:29:39.818Z,15.77
2019-04-30T23:34:41.136Z,16.50
2019-04-30T23:39:42.393Z,15.60
2019-04-30T23:44:43.938Z,16.23
2019-04-30T23:49:45.176Z,16.07
2019-04-30T23:54:46.705Z,16.33
2019-04-30T23:59:47.932Z,15.50
